Friday, October 31, 2014
22:58 UTC
  |  Log In   |  Register Free
Airport Search:

Clayton Municipal Airport
(11A)

Clayton Municipal Airport Diagram
No Airport Diagram Available

FAA data valid effective September 18, 2014 - November 13, 2014 (unless otherwise noted).

 
 
 
 
 
 
 
 
 
 
 
 
 
 

Current Aviation Weather for Clayton Municipal Airport (11A)

METAR data is unavailable for 11A. The nearest METAR location is at KEUF (18.6 nm NE from 11A).

The most recent METAR observation for KEUF was updated at: 2211
METAR Summary (Translated METAR)
KEUF
312158Z AUTO 33003KT 10SM FEW070 SCT100 19/07 A2988 RMK AO2 SLP118 T01890067
(18.6 nm NE from 11A)
KTOI
312153Z AUTO 30009KT 10SM CLR 19/07 A2991 RMK AO2 SLP128 T01940067
(26.9 nm SW from 11A)
TAF Summary (Translated TAF)
KTOI
(45.4 nm SW from KEUF)
311733Z 3118/0118 31008KT P6SM SCT070 FM010100 31015KT P6SM FEW070 FM011400 33016G25KT P6SM SKC
  Airport Weather Conditions for 11A

Current weather conditions are
not available for 11A


The nearest NOAA weather station
is at EUF, (18.6 nm NE from 11A)
  
 Current Weather at EUF
66° F
Partly Cloudy
Northwest winds at 3.5 mph
EUF NOAA Radar

Pressure: 29.88 in
Humidity: 45%
Wind: Northwest at 3.5 MPH (3 KT)
Dew Point: 44.1°F
Visibility: 10.00 mi


Airport Weather Forecast for 11A

Translated METAR and TAF for KEUF
Translated METAR for KEUF (2253 UTC 31 October 2014)
found at http://aviationweather.gov/adds/metars/
 
METAR text: KEUF 312158Z AUTO 33003KT 10SM FEW070 SCT100 19/07 A2988 RMK AO2 SLP118 T01890067
Conditions at: KEUF (EUFAULA , AL, US) observed 2158 UTC 31 October 2014
Temperature: 18.9°C (66°F)
Dewpoint: 6.7°C (44°F) [RH = 45%]
Pressure (altimeter): 29.88 inches Hg (1011.9 mb)
[Sea-level pressure: 1011.8 mb]
Winds: from the NNW (330 degrees) at 3 MPH (3 knots; 1.6 m/s)
Visibility: 10 or more miles (16+ km)
Ceiling: at least 12,000 feet AGL
Clouds: few clouds at 7000 feet AGL
scattered clouds at 10000 feet AGL
Weather: automated observation with no human augmentation;
there may or may not be significant weather present at this time
Translated TAF for KEUF

There is no translated TAF available for this airport

Find All Airport Services Find A Hotel Find A Rental Car Find A Golf Course Find A Restaurant $100 Hamburger



FBO's on the Field
FBO Company Facility Photos Services Transportation Aviation Fuel Prices: Prices include tax
Catering Weather Repair Courtesy Rental Type 100LL JetA JetA+ MOGAS 8087
 
Add another FBO Facility Photos Catering Weather Repair Courtesy Rental Type 100LL JetA JetA+ MOGAS 8087
Services Transportation Aviation Fuel Prices: Prices include tax
There are no FBO's currently reporting fuel at 11A. List your FBO now


model-print
model-print
model-print
model-print